Aviation Digital Data Service (ADDS)

Output produced by METARs form (1406 UTC 21 September 2014)
found at http://aviationweather.gov/adds/metars/
 
KGSO 211140Z 2112/2212 31005KT P6SM SCT250 
     FM211600 27010KT P6SM SKC 
     FM220300 33005KT P6SM SCT050